Terminal Aerodrome Forecast
Issued by NWS Bismarck, ND

Home | Current Version | Previous Version | Text Only | Print | Product List | Glossary On
Versions: 1 2 3 4 5 6 7 8 9 10 11 12 13 14 15 16 17 18 19 20 21
000
FTUS43 KBIS 282300
TAFISN
TAF
KISN 282328Z 2900/2924 29024G35KT 5SM -SHRA BKN050
     FM290400 31030G43KT 5SM -SHRA BKN035
     FM290800 32027G41KT P6SM BKN020
     FM291100 30021G32KT P6SM BKN100
     FM291300 30016G24KT P6SM BKN230
     FM291500 29014KT P6SM SCT200=

USA.gov is the U.S. government's official web portal to all federal, state and local government web resources and services.